Terminal Aerodrome Forecast
Issued by NWS

Home | Current Version | Previous Version | Text Only | Print | Product List | Glossary Off
Versions: 1 2 3 4 5 6 7 8 9 10 11 12 13 14 15 16

925
FTUS43 KABR 270741 AAA
TAFMBG
TAF AMD
KMBG 270741Z 2708/2806 03006KT P6SM OVC027
      TEMPO 2708/2710 SCT028 OVC045
     FM271500 03008KT P6SM SKC=

USA.gov is the U.S. government's official web portal to all federal, state and local government web resources and services.